Time;durP1;ratioP1;P1;durP2;ratioP2;P2;SDS_P1;SDS_P2;PMS_P1;PMS_P2;Temp;Humidity;BMP_temperature;BMP_pressure;BME280_temperature;BME280_humidity;BME280_pressure;Samples;Min_cycle;Max_cycle;Signal;HPM_P1;HPM_P2
2023/01/25 00:00:28;;;;;;;0.40;0.40;;;;;;;2.44;83.52;98267.28;4984814;28;20050;-58
2023/01/25 00:02:55;;;;;;;2.60;1.20;;;;;;;2.36;83.50;98265.19;4984676;28;20517;-64
2023/01/25 00:05:22;;;;;;;3.40;3.25;;;;;;;2.47;84.17;98266.72;4984101;28;20050;-64
2023/01/25 00:07:49;;;;;;;0.40;0.40;;;;;;;2.22;84.42;98234.97;4984854;28;20051;-61
2023/01/25 00:10:15;;;;;;;0.40;0.40;;;;;;;2.53;84.27;98265.59;5000339;28;20112;-64
2023/01/25 00:12:42;;;;;;;0.38;0.38;;;;;;;2.52;84.50;98263.94;5008599;28;20054;-63
2023/01/25 00:15:09;;;;;;;1.00;0.85;;;;;;;2.55;83.91;98263.34;5008252;28;20124;-58
2023/01/25 00:17:36;;;;;;;0.40;0.40;;;;;;;2.27;83.48;98209.50;5008062;28;20852;-63
2023/01/25 00:20:03;;;;;;;0.52;0.50;;;;;;;2.23;82.83;98233.06;5007641;28;20069;-64
2023/01/25 00:22:29;;;;;;;4.18;1.10;;;;;;;2.43;82.35;98260.19;5008072;28;20049;-64
2023/01/25 00:24:56;;;;;;;0.40;0.40;;;;;;;2.30;82.20;98260.88;5008479;28;20046;-64
2023/01/25 00:27:23;;;;;;;0.88;0.88;;;;;;;1.94;83.25;98213.09;5006454;28;20264;-60
2023/01/25 00:29:49;;;;;;;1.30;1.20;;;;;;;2.19;83.08;98275.72;5007787;28;20054;-64
2023/01/25 00:32:16;;;;;;;0.40;0.40;;;;;;;2.15;83.24;98269.22;5007483;28;20053;-61
2023/01/25 00:34:48;;;;;;;2.50;2.30;;;;;;;2.26;83.50;98270.75;5006408;28;20064;-58
2023/01/25 00:37:23;;;;;;;1.45;0.82;;;;;;;2.23;83.50;98266.66;5007229;28;20058;-64
2023/01/25 00:39:51;;;;;;;2.38;1.05;;;;;;;2.07;82.55;98250.69;5007636;28;20053;-64
2023/01/25 00:42:18;;;;;;;2.72;1.52;;;;;;;2.14;83.62;98230.13;5007407;28;20058;-65
2023/01/25 00:44:46;;;;;;;0.68;0.65;;;;;;;2.25;84.38;98259.00;5007700;28;20057;-64
2023/01/25 00:47:14;;;;;;;0.30;0.30;;;;;;;2.31;83.65;98246.91;5007239;28;20061;-59
2023/01/25 00:49:43;;;;;;;0.40;0.40;;;;;;;2.40;82.63;98258.03;5007318;28;20112;-65
2023/01/25 00:52:10;;;;;;;0.40;0.40;;;;;;;1.92;82.82;98193.44;5006766;28;20054;-58
2023/01/25 00:54:37;;;;;;;0.60;0.60;;;;;;;2.30;82.86;98266.34;5007872;28;20112;-58
2023/01/25 00:57:04;;;;;;;0.40;0.40;;;;;;;2.39;81.78;98259.94;5007401;28;20464;-59
2023/01/25 00:59:31;;;;;;;0.40;0.40;;;;;;;2.01;81.73;98169.88;5007102;28;20084;-64
2023/01/25 01:01:57;;;;;;;2.42;1.10;;;;;;;2.25;81.95;98203.50;5006984;28;20058;-58
2023/01/25 01:04:24;;;;;;;1.20;1.20;;;;;;;2.68;82.48;98271.69;5007526;28;20112;-65
2023/01/25 01:06:52;;;;;;;0.40;0.40;;;;;;;2.65;82.75;98252.31;5005688;28;20057;-65
2023/01/25 01:09:21;;;;;;;0.40;0.40;;;;;;;2.65;80.87;98252.31;5007548;28;20120;-58
2023/01/25 01:11:48;;;;;;;0.50;0.50;;;;;;;2.54;81.12;98239.84;5007214;28;20140;-58
2023/01/25 01:14:14;;;;;;;0.40;0.40;;;;;;;2.55;80.22;98252.41;5007268;28;20520;-60
2023/01/25 01:16:41;;;;;;;0.40;0.40;;;;;;;2.60;80.53;98249.63;5006639;28;20054;-65
2023/01/25 01:19:08;;;;;;;0.40;0.40;;;;;;;2.14;78.99;98185.56;5006882;28;20049;-64
2023/01/25 01:21:35;;;;;;;0.65;0.50;;;;;;;2.44;79.92;98223.53;5006129;28;20041;-65
2023/01/25 01:24:01;;;;;;;0.73;0.73;;;;;;;2.41;79.54;98224.94;5005735;28;20054;-59
2023/01/25 01:26:28;;;;;;;0.95;0.95;;;;;;;2.34;78.50;98223.66;5005399;28;20053;-64
2023/01/25 01:28:54;;;;;;;1.63;0.60;;;;;;;2.07;79.06;98196.03;5007377;28;20104;-58
2023/01/25 01:31:22;;;;;;;0.40;0.40;;;;;;;2.40;78.80;98241.63;5006468;28;20089;-65
2023/01/25 01:33:51;;;;;;;6.55;2.88;;;;;;;2.13;79.77;98217.56;5005032;28;20608;-64
2023/01/25 01:36:20;;;;;;;2.40;1.95;;;;;;;2.35;79.25;98247.97;5004869;28;20081;-64
2023/01/25 01:38:47;;;;;;;0.40;0.40;;;;;;;2.34;79.58;98240.06;5006512;28;20440;-58
2023/01/25 01:41:14;;;;;;;4.30;1.45;;;;;;;1.94;80.55;98174.84;5006502;28;20448;-60
2023/01/25 01:43:42;;;;;;;1.10;1.10;;;;;;;1.90;80.43;98179.28;5006554;28;20511;-59
2023/01/25 01:46:28;;;;;;;0.40;0.40;;;;;;;1.88;80.47;98193.19;5006626;28;20112;-66
2023/01/25 01:49:00;;;;;;;0.30;0.30;;;;;;;2.27;79.78;98239.56;5005595;28;20086;-60
2023/01/25 01:51:45;;;;;;;0.40;0.40;;;;;;;2.31;80.62;98243.38;5006355;28;20108;-59
2023/01/25 01:54:26;;;;;;;0.40;0.40;;;;;;;2.38;80.24;98241.09;5006792;28;20057;-58
2023/01/25 01:57:28;;;;;;;0.50;0.50;;;;;;;2.50;80.25;98249.72;5006058;28;20049;-68
2023/01/25 02:00:01;;;;;;;1.30;1.25;;;;;;;2.47;79.65;98244.84;4994157;28;20111;-66
2023/01/25 02:02:28;;;;;;;0.40;0.40;;;;;;;2.19;79.78;98191.00;5006440;28;20085;-67
2023/01/25 02:04:59;;;;;;;8.88;2.05;;;;;;;2.51;79.55;98245.91;4988196;28;20058;-67
2023/01/25 02:07:31;;;;;;;0.30;0.30;;;;;;;2.47;80.04;98250.31;4986375;28;20078;-66
2023/01/25 02:10:03;;;;;;;2.55;0.40;;;;;;;2.48;79.42;98251.94;4996773;28;20084;-66
2023/01/25 02:12:30;;;;;;;0.60;0.60;;;;;;;2.17;80.33;98196.75;5006108;28;20113;-59
2023/01/25 02:14:57;;;;;;;0.40;0.40;;;;;;;2.51;80.53;98245.91;5006001;28;20172;-65
2023/01/25 02:17:33;;;;;;;0.40;0.40;;;;;;;2.57;81.56;98242.00;5005760;28;20050;-66
2023/01/25 02:20:19;;;;;;;0.40;0.40;;;;;;;2.64;82.69;98239.75;5006228;28;20057;-59
2023/01/25 02:23:00;;;;;;;0.40;0.40;;;;;;;2.61;83.22;98223.91;5004239;28;20061;-59
2023/01/25 02:25:28;;;;;;;0.40;0.40;;;;;;;2.26;85.64;98188.75;5004092;28;20057;-59
2023/01/25 02:28:35;;;;;;;0.40;0.40;;;;;;;2.09;90.83;98234.81;5004120;28;20469;-66
2023/01/25 02:31:02;;;;;;;0.40;0.40;;;;;;;1.89;90.01;98148.41;5003813;28;20054;-66
2023/01/25 02:33:28;;;;;;;0.40;0.40;;;;;;;2.44;88.49;98229.00;5004786;28;20057;-59
2023/01/25 02:36:14;;;;;;;0.50;0.50;;;;;;;2.47;88.89;98228.44;5005447;28;20181;-59
2023/01/25 02:38:45;;;;;;;0.30;0.30;;;;;;;2.50;90.37;98227.84;5005363;28;20112;-59
2023/01/25 02:41:20;;;;;;;0.40;0.40;;;;;;;2.28;90.83;98233.00;5005463;28;20050;-64
2023/01/25 02:43:47;;;;;;;0.40;0.40;;;;;;;2.28;92.98;98230.25;5005153;28;20092;-59
2023/01/25 02:46:24;;;;;;;0.57;0.57;;;;;;;2.01;94.48;98219.84;5005597;28;20159;-66
2023/01/25 02:48:52;;;;;;;0.40;0.40;;;;;;;2.00;95.28;98226.44;5005238;28;20061;-62
2023/01/25 02:51:20;;;;;;;1.55;1.27;;;;;;;2.11;94.90;98221.69;5003433;28;20666;-58
2023/01/25 02:53:47;;;;;;;0.40;0.40;;;;;;;2.33;94.39;98227.47;5003671;28;20050;-59
2023/01/25 02:56:14;;;;;;;0.40;0.40;;;;;;;2.37;93.96;98229.34;5005303;28;20108;-59
2023/01/25 02:58:40;;;;;;;0.40;0.40;;;;;;;2.36;93.49;98224.16;5005037;28;20498;-66
2023/01/25 03:01:08;;;;;;;0.70;0.70;;;;;;;1.65;92.31;98105.72;5005177;28;20084;-66
2023/01/25 03:03:35;;;;;;;0.30;0.30;;;;;;;1.92;94.37;98213.38;5004903;28;20493;-67
2023/01/25 03:06:01;;;;;;;0.30;0.30;;;;;;;2.18;95.18;98219.44;5003528;28;20092;-59
2023/01/25 03:08:28;;;;;;;0.60;0.60;;;;;;;2.22;95.34;98225.94;5004625;28;20058;-66
2023/01/25 03:11:00;;;;;;;0.40;0.40;;;;;;;2.30;96.52;98228.06;5004690;28;20164;-58
2023/01/25 03:13:27;;;;;;;0.40;0.40;;;;;;;2.25;96.67;98214.44;5004548;28;20081;-65
2023/01/25 03:16:06;;;;;;;0.40;0.40;;;;;;;2.39;97.51;98231.78;5004985;28;20054;-59
2023/01/25 03:18:34;;;;;;;1.75;1.17;;;;;;;2.46;97.46;98226.81;5003598;28;20052;-66
2023/01/25 03:21:09;;;;;;;0.30;0.30;;;;;;;2.36;96.67;98183.16;5004997;28;20488;-60
2023/01/25 03:23:36;;;;;;;1.52;1.45;;;;;;;2.56;96.45;98232.19;5004674;28;20050;-66
2023/01/25 03:26:07;;;;;;;0.75;0.75;;;;;;;2.45;96.90;98230.66;5004502;28;20513;-58
2023/01/25 03:28:33;;;;;;;0.30;0.30;;;;;;;2.39;95.82;98237.25;5004785;28;20064;-59
2023/01/25 03:31:00;;;;;;;1.60;0.63;;;;;;;2.34;94.28;98215.47;5004495;28;20120;-59
2023/01/25 03:33:27;;;;;;;2.15;0.70;;;;;;;2.08;91.39;98165.69;5004284;28;20068;-60
2023/01/25 03:35:54;;;;;;;0.40;0.40;;;;;;;2.45;89.40;98225.19;5002747;28;20082;-66
2023/01/25 03:38:21;;;;;;;0.40;0.40;;;;;;;1.79;87.14;98112.19;5004379;28;20524;-59
2023/01/25 03:40:48;;;;;;;0.40;0.40;;;;;;;2.38;87.08;98225.53;5004596;28;20424;-67
2023/01/25 03:43:14;;;;;;;0.40;0.40;;;;;;;2.48;86.37;98230.06;5004857;28;20050;-59
2023/01/25 03:45:41;;;;;;;1.60;1.50;;;;;;;2.22;85.89;98176.75;5004004;28;20089;-60
2023/01/25 03:48:08;;;;;;;0.40;0.40;;;;;;;2.60;83.92;98239.50;5003185;28;20107;-59
2023/01/25 03:50:35;;;;;;;0.40;0.40;;;;;;;2.49;84.51;98231.69;5003950;28;20057;-59
2023/01/25 03:53:16;;;;;;;0.40;0.40;;;;;;;2.03;85.56;98140.31;5004676;28;20201;-61
2023/01/25 03:55:42;;;;;;;0.40;0.40;;;;;;;2.51;85.83;98207.63;5003902;28;20160;-66
2023/01/25 03:58:09;;;;;;;4.13;1.58;;;;;;;2.52;83.96;98210.06;5004585;28;20517;-59
2023/01/25 04:00:35;;;;;;;1.48;1.38;;;;;;;2.31;81.93;98196.91;5003958;28;20142;-59
2023/01/25 04:03:02;;;;;;;0.30;0.30;;;;;;;2.41;82.40;98235.06;5004171;28;20046;-67
2023/01/25 04:05:28;;;;;;;0.93;0.93;;;;;;;2.31;82.14;98235.19;5003881;28;20049;-58
2023/01/25 04:07:55;;;;;;;4.97;1.50;;;;;;;2.41;82.41;98235.06;5004104;28;20488;-66
2023/01/25 04:10:22;;;;;;;0.30;0.30;;;;;;;2.13;82.62;98195.72;5004235;28;20054;-66
2023/01/25 04:12:48;;;;;;;0.40;0.40;;;;;;;2.14;83.47;98191.03;5002738;28;20054;-59
2023/01/25 04:15:15;;;;;;;0.70;0.70;;;;;;;2.04;86.19;98172.03;5003766;28;20100;-66
2023/01/25 04:17:41;;;;;;;3.30;0.85;;;;;;;2.17;92.27;98236.94;5003936;28;20057;-60
2023/01/25 04:20:09;;;;;;;4.22;0.95;;;;;;;1.48;98.51;98227.13;4994273;28;20688;-65
2023/01/25 04:22:36;;;;;;;0.75;0.75;;;;;;;1.79;100.00;98230.41;4984748;28;20058;-65
2023/01/25 04:25:02;;;;;;;0.30;0.30;;;;;;;1.92;100.00;98231.69;4984646;28;20077;-66
2023/01/25 04:27:29;;;;;;;0.40;0.40;;;;;;;1.92;100.00;98220.75;4999474;28;20117;-60
2023/01/25 04:29:55;;;;;;;0.30;0.30;;;;;;;2.06;100.00;98235.38;4984381;28;20089;-59
2023/01/25 04:32:22;;;;;;;0.40;0.40;;;;;;;1.99;100.00;98215.78;4998938;28;20141;-61
2023/01/25 04:34:49;;;;;;;0.30;0.30;;;;;;;1.90;100.00;98201.13;4984196;28;20061;-59
2023/01/25 04:37:15;;;;;;;0.40;0.40;;;;;;;1.62;100.00;98226.44;4984078;28;20498;-59
2023/01/25 04:39:42;;;;;;;0.32;0.32;;;;;;;1.78;100.00;98247.09;4984780;28;20054;-66
2023/01/25 04:42:09;;;;;;;0.40;0.40;;;;;;;1.77;100.00;98208.03;4984515;28;20050;-61
2023/01/25 04:44:35;;;;;;;0.38;0.38;;;;;;;1.84;100.00;98213.16;4999173;28;20129;-59
2023/01/25 04:47:02;;;;;;;0.40;0.40;;;;;;;2.14;100.00;98245.69;4983991;28;20054;-62
2023/01/25 04:49:29;;;;;;;0.95;0.95;;;;;;;2.23;100.00;98244.00;4984477;28;20065;-65
2023/01/25 04:51:56;;;;;;;0.30;0.30;;;;;;;2.20;99.99;98244.53;4998697;28;20062;-66
2023/01/25 04:54:22;;;;;;;3.03;1.38;;;;;;;2.09;93.68;98243.00;4984633;28;20101;-60
2023/01/25 04:56:49;;;;;;;0.40;0.40;;;;;;;2.14;89.93;98240.22;4986094;28;20405;-59
2023/01/25 04:59:15;;;;;;;0.50;0.50;;;;;;;2.18;86.69;98260.44;4988038;28;20105;-66
2023/01/25 05:01:42;;;;;;;0.40;0.40;;;;;;;2.20;85.10;98244.53;5002166;28;20085;-68
2023/01/25 05:04:09;;;;;;;0.38;0.38;;;;;;;2.00;84.06;98220.97;4987891;28;20081;-61
2023/01/25 05:06:35;;;;;;;5.05;0.60;;;;;;;1.96;81.63;98235.50;4987025;28;20588;-67
2023/01/25 05:09:02;;;;;;;0.40;0.40;;;;;;;1.95;83.08;98236.56;4987603;28;20100;-67
2023/01/25 05:11:28;;;;;;;0.80;0.80;;;;;;;1.21;85.02;98207.63;5006861;28;20053;-57
2023/01/25 05:13:55;;;;;;;0.57;0.47;;;;;;;1.51;85.73;98228.44;5007417;28;20501;-60
2023/01/25 05:16:22;;;;;;;0.30;0.30;;;;;;;1.31;84.40;98243.03;5005250;28;20054;-57
2023/01/25 05:18:48;;;;;;;0.45;0.45;;;;;;;1.58;84.84;98241.78;5007154;28;20500;-58
2023/01/25 05:24:00;;;;;;;0.40;0.40;;;;;;;1.45;82.37;98203.06;5007090;28;20092;-66
2023/01/25 05:29:12;;;;;;;0.32;0.32;;;;;;;1.84;81.65;98235.03;5006964;28;20050;-66
2023/01/25 05:31:39;;;;;;;0.30;0.30;;;;;;;1.91;79.28;98235.53;5004857;28;20061;-59
2023/01/25 05:34:08;;;;;;;0.60;0.60;;;;;;;1.78;80.02;98225.25;5005321;28;20045;-57
2023/01/25 05:36:34;;;;;;;0.32;0.32;;;;;;;2.01;82.25;98235.44;5006438;28;20081;-58
2023/01/25 05:39:01;;;;;;;0.35;0.35;;;;;;;1.80;83.76;98242.16;5005509;28;20061;-65
2023/01/25 05:41:29;;;;;;;0.82;0.82;;;;;;;1.74;85.89;98273.34;5006161;28;20050;-68
2023/01/25 05:43:56;;;;;;;17.17;3.13;;;;;;;1.42;86.96;98176.34;5005096;28;20045;-65
2023/01/25 05:46:22;;;;;;;0.57;0.52;;;;;;;1.96;87.08;98249.94;5004442;28;20057;-58
2023/01/25 05:48:49;;;;;;;0.35;0.35;;;;;;;1.76;89.04;98243.81;5006160;28;20053;-58
2023/01/25 05:51:16;;;;;;;0.30;0.30;;;;;;;2.01;89.01;98251.84;4994250;28;20042;-58
2023/01/25 05:53:42;;;;;;;0.50;0.50;;;;;;;2.05;88.66;98248.25;4986721;28;20050;-69
2023/01/25 05:56:09;;;;;;;0.40;0.40;;;;;;;1.51;89.33;98127.44;4986191;28;20678;-65
2023/01/25 05:58:37;;;;;;;0.40;0.40;;;;;;;2.33;89.04;98254.81;4986882;28;20054;-65
2023/01/25 06:01:06;;;;;;;0.98;0.98;;;;;;;1.93;86.40;98214.22;4986462;28;20062;-58
2023/01/25 06:03:33;;;;;;;0.40;0.40;;;;;;;2.27;87.60;98255.97;4985202;28;20531;-66
2023/01/25 06:06:01;;;;;;;0.40;0.40;;;;;;;2.40;87.74;98255.31;4985431;28;20488;-66
2023/01/25 06:08:29;;;;;;;0.40;0.40;;;;;;;1.93;88.00;98176.75;4985114;28;20124;-66
2023/01/25 06:10:56;;;;;;;0.38;0.38;;;;;;;2.49;88.03;98259.03;4996563;28;20053;-59
2023/01/25 06:13:23;;;;;;;0.40;0.40;;;;;;;2.40;86.97;98256.09;5005777;28;20131;-66
2023/01/25 06:15:52;;;;;;;0.32;0.32;;;;;;;2.24;85.40;98246.44;5005973;28;20046;-61
2023/01/25 06:18:19;;;;;;;0.40;0.40;;;;;;;2.49;85.15;98264.50;5004453;28;20054;-66
2023/01/25 06:20:46;;;;;;;0.40;0.40;;;;;;;2.50;84.53;98249.72;5005604;28;20112;-67
2023/01/25 06:23:13;;;;;;;0.40;0.40;;;;;;;2.16;82.20;98224.38;5005589;28;20104;-58
2023/01/25 06:25:40;;;;;;;0.40;0.40;;;;;;;2.41;80.82;98263.22;5005310;28;20054;-60
2023/01/25 06:28:07;;;;;;;0.40;0.40;;;;;;;2.29;79.46;98253.78;5005590;28;20058;-65
2023/01/25 06:30:33;;;;;;;0.32;0.32;;;;;;;2.40;80.57;98263.50;5003853;28;20484;-59
2023/01/25 06:33:01;;;;;;;0.47;0.47;;;;;;;2.33;78.43;98265.75;5005190;28;20062;-60
2023/01/25 06:35:28;;;;;;;2.75;1.50;;;;;;;2.13;78.31;98271.41;5005328;28;20066;-59
2023/01/25 06:37:55;;;;;;;1.58;1.30;;;;;;;2.18;81.51;98268.63;5003851;28;20112;-67
2023/01/25 06:40:22;;;;;;;0.63;0.63;;;;;;;2.34;82.04;98264.66;5005646;28;20054;-59
2023/01/25 06:42:48;;;;;;;0.30;0.30;;;;;;;2.22;82.23;98269.69;5004653;28;20045;-59
2023/01/25 06:45:15;;;;;;;0.40;0.40;;;;;;;1.75;83.75;98187.56;5005291;28;20066;-67
2023/01/25 06:47:42;;;;;;;0.47;0.47;;;;;;;1.93;86.16;98227.88;5005333;28;20053;-68
2023/01/25 06:50:09;;;;;;;0.40;0.40;;;;;;;2.40;88.49;98277.19;5004912;28;20149;-68
2023/01/25 06:52:36;;;;;;;0.73;0.73;;;;;;;1.82;91.68;98238.03;5000061;28;20072;-61
2023/01/25 06:55:08;;;;;;;5.55;2.67;;;;;;;1.70;94.81;98267.63;5001291;28;20318;-61
2023/01/25 06:57:35;;;;;;;0.88;0.88;;;;;;;1.96;96.95;98271.00;5006616;28;20563;-63
2023/01/25 07:00:03;;;;;;;4.82;1.80;;;;;;;1.36;96.89;98212.97;4998713;28;20049;-63
2023/01/25 07:02:29;;;;;;;5.50;3.35;;;;;;;0.93;99.49;98172.84;5004238;28;20175;-57
2023/01/25 07:04:56;;;;;;;2.47;2.28;;;;;;;0.63;100.00;98175.75;5003301;28;20136;-73
2023/01/25 07:07:22;;;;;;;2.72;2.00;;;;;;;0.27;100.00;98127.88;4997266;28;20101;-62
2023/01/25 07:09:49;;;;;;;1.33;0.90;;;;;;;1.02;100.00;98271.28;4998109;28;20042;-58
2023/01/25 07:12:16;;;;;;;1.77;1.17;;;;;;;0.97;100.00;98253.03;4996233;28;20141;-61
2023/01/25 07:14:42;;;;;;;5.05;1.60;;;;;;;0.24;100.00;98182.13;5004750;28;20058;-56
2023/01/25 07:17:09;;;;;;;0.68;0.68;;;;;;;0.18;100.00;98170.44;5003755;28;20088;-59
2023/01/25 07:19:36;;;;;;;2.15;1.60;;;;;;;0.68;100.00;98253.97;4997911;28;20046;-57
2023/01/25 07:22:02;;;;;;;1.10;1.08;;;;;;;-0.10;100.00;98111.13;5001475;28;20116;-61
2023/01/25 07:24:29;;;;;;;2.70;2.50;;;;;;;0.94;100.00;98269.94;5003723;28;20089;-60
2023/01/25 07:26:56;;;;;;;6.43;2.47;;;;;;;0.48;100.00;98183.97;5002586;28;20092;-56
2023/01/25 07:29:23;;;;;;;0.40;0.40;;;;;;;1.00;100.00;98247.00;5002393;28;20049;-59
2023/01/25 07:31:49;;;;;;;0.50;0.50;;;;;;;0.40;100.00;98175.53;5004333;28;20125;-62
2023/01/25 07:34:16;;;;;;;9.93;3.85;;;;;;;1.17;97.71;98272.03;4997842;28;20646;-61
2023/01/25 07:36:43;;;;;;;0.40;0.40;;;;;;;1.21;99.43;98270.38;4990824;28;20049;-57
2023/01/25 07:39:10;;;;;;;6.63;2.47;;;;;;;1.17;95.00;98233.03;5003096;28;20045;-62
2023/01/25 07:41:37;;;;;;;1.77;1.67;;;;;;;1.48;93.35;98265.34;5001764;28;20060;-59
2023/01/25 07:44:04;;;;;;;2.65;1.42;;;;;;;0.85;84.03;98222.53;5001461;28;20410;-59
2023/01/25 07:46:31;;;;;;;2.00;1.30;;;;;;;1.39;82.55;98272.47;5002655;28;20065;-58
2023/01/25 07:48:58;;;;;;;0.40;0.40;;;;;;;-2.24;81.57;97676.38;5003077;28;20097;-61
2023/01/25 07:51:29;;;;;;;0.40;0.40;;;;;;;1.60;83.17;98264.16;4987139;28;20058;-58
2023/01/25 07:53:58;;;;;;;0.75;0.75;;;;;;;1.04;79.76;98193.50;4992099;28;20940;-62
2023/01/25 07:56:27;;;;;;;1.25;1.15;;;;;;;1.69;78.83;98246.06;4995782;28;20048;-61
2023/01/25 07:58:56;;;;;;;0.82;0.82;;;;;;;0.64;81.07;98128.28;4994349;28;20521;-61
2023/01/25 08:01:25;;;;;;;0.50;0.50;;;;;;;1.50;77.01;98284.94;5003858;28;20050;-63
2023/01/25 08:03:55;;;;;;;0.70;0.70;;;;;;;1.68;77.04;98275.28;4996240;28;20053;-56
2023/01/25 08:06:29;;;;;;;1.25;1.15;;;;;;;1.04;76.10;98228.97;4984053;28;20054;-58
2023/01/25 08:08:58;;;;;;;0.60;0.47;;;;;;;1.70;76.70;98278.56;4993464;28;20108;-59
2023/01/25 08:11:27;;;;;;;0.40;0.40;;;;;;;1.61;77.81;98263.06;5003475;28;20054;-60
2023/01/25 08:13:54;;;;;;;0.40;0.40;;;;;;;2.01;79.60;98290.09;5003484;28;20519;-59
2023/01/25 08:16:26;;;;;;;0.50;0.50;;;;;;;1.91;77.06;98290.16;5003700;28;20046;-60
2023/01/25 08:18:58;;;;;;;0.40;0.40;;;;;;;1.85;76.76;98272.19;5002433;28;20104;-59
2023/01/25 08:21:28;;;;;;;2.28;1.08;;;;;;;1.87;75.36;98245.38;5003731;28;20513;-62
2023/01/25 08:24:00;;;;;;;2.47;0.88;;;;;;;1.96;74.88;98288.19;5003735;28;20049;-57
2023/01/25 08:26:27;;;;;;;0.30;0.30;;;;;;;1.85;74.44;98269.44;5002608;28;20076;-58
2023/01/25 08:28:55;;;;;;;3.20;0.82;;;;;;;1.97;75.72;98278.09;5001833;28;20054;-57
2023/01/25 08:31:24;;;;;;;2.90;0.82;;;;;;;2.16;75.76;98287.22;5005139;28;20137;-59
2023/01/25 08:33:51;;;;;;;0.68;0.55;;;;;;;1.81;75.37;98287.50;4999238;28;20060;-60
2023/01/25 08:36:18;;;;;;;0.98;0.82;;;;;;;1.93;75.90;98286.03;4987867;28;20121;-57
2023/01/25 08:38:46;;;;;;;0.32;0.32;;;;;;;2.00;73.70;98296.66;4996337;28;20049;-61
2023/01/25 08:41:16;;;;;;;1.10;1.00;;;;;;;2.22;75.75;98286.91;4987501;28;20054;-58
2023/01/25 08:43:43;;;;;;;1.10;1.00;;;;;;;1.73;78.52;98241.66;4997803;28;20481;-59
2023/01/25 08:46:11;;;;;;;0.40;0.40;;;;;;;2.46;79.80;98300.63;5005997;28;20092;-55
2023/01/25 08:48:37;;;;;;;0.40;0.40;;;;;;;2.77;78.53;98289.09;5017508;28;20045;-53
2023/01/25 08:51:07;;;;;;;0.57;0.57;;;;;;;2.96;78.73;98297.38;4988258;28;20590;-55
2023/01/25 08:53:34;;;;;;;0.40;0.40;;;;;;;2.97;79.72;98293.56;4995106;28;20054;-57
2023/01/25 08:56:06;;;;;;;0.40;0.40;;;;;;;2.88;77.03;98295.28;5006613;28;20050;-61
2023/01/25 08:58:34;;;;;;;1.67;0.80;;;;;;;2.76;78.17;98292.13;4999700;28;20437;-56
2023/01/25 09:01:05;;;;;;;0.40;0.40;;;;;;;2.30;75.34;98293.66;5005788;28;20069;-59
2023/01/25 09:03:37;;;;;;;5.28;1.63;;;;;;;2.58;77.84;98290.13;5005020;28;20057;-58
2023/01/25 09:06:04;;;;;;;1.35;1.35;;;;;;;1.98;78.86;98208.69;5002914;28;20047;-61
2023/01/25 09:08:32;;;;;;;0.60;0.60;;;;;;;2.62;77.91;98280.25;4994971;28;20049;-60
2023/01/25 09:11:03;;;;;;;1.15;1.05;;;;;;;2.26;75.88;98281.69;5002597;28;20129;-56
2023/01/25 09:13:30;;;;;;;0.50;0.50;;;;;;;2.42;79.20;98237.50;4998196;28;20492;-59
2023/01/25 09:15:59;;;;;;;0.40;0.40;;;;;;;2.89;79.81;98277.78;5001562;28;20049;-58
2023/01/25 09:18:27;;;;;;;0.40;0.40;;;;;;;2.66;80.46;98207.44;5006700;28;20133;-61
2023/01/25 09:20:54;;;;;;;0.40;0.40;;;;;;;3.32;81.18;98279.41;4989161;28;20382;-62
2023/01/25 09:23:22;;;;;;;0.40;0.40;;;;;;;2.85;80.32;98170.00;4991762;28;20073;-62
2023/01/25 09:25:57;;;;;;;1.98;1.88;;;;;;;3.63;79.48;98263.38;4993660;28;20067;-61
2023/01/25 09:28:24;;;;;;;1.10;1.10;;;;;;;3.71;78.82;98263.56;5002000;28;20042;-59
2023/01/25 09:31:03;;;;;;;0.40;0.40;;;;;;;3.57;78.83;98239.94;5005515;28;20049;-65
2023/01/25 09:33:49;;;;;;;1.13;1.13;;;;;;;3.58;79.63;98256.06;4993782;28;20140;-58
2023/01/25 09:36:16;;;;;;;2.60;1.70;;;;;;;3.65;79.54;98250.22;5037708;28;20111;-57
2023/01/25 09:38:44;;;;;;;0.50;0.50;;;;;;;3.24;80.36;98210.81;5011592;28;20104;-58
2023/01/25 09:41:39;;;;;;;0.50;0.50;;;;;;;3.72;80.81;98232.28;5005883;28;20072;-59
2023/01/25 09:44:36;;;;;;;0.50;0.50;;;;;;;3.49;79.54;98153.75;5002994;28;20050;-59
2023/01/25 09:47:14;;;;;;;0.40;0.40;;;;;;;3.86;77.15;98203.03;4989376;28;20140;-61
2023/01/25 09:50:26;;;;;;;2.45;2.28;;;;;;;2.48;80.17;98116.03;5002658;28;20050;-61
2023/01/25 09:53:04;;;;;;;1.60;0.98;;;;;;;2.90;83.00;98216.47;4994004;28;20124;-63
2023/01/25 09:55:32;;;;;;;0.85;0.85;;;;;;;1.49;81.91;98084.03;4994229;28;20089;-58
2023/01/25 09:58:01;;;;;;;0.40;0.40;;;;;;;2.21;84.26;98180.59;4995981;28;20045;-61
2023/01/25 10:00:32;;;;;;;1.38;1.27;;;;;;;2.47;83.73;98212.03;5004607;28;20061;-60
2023/01/25 10:03:20;;;;;;;1.40;1.30;;;;;;;2.87;84.29;98206.09;5004518;28;20046;-61
2023/01/25 10:05:50;;;;;;;0.50;0.50;;;;;;;2.45;80.71;98078.34;5005843;28;20068;-58
2023/01/25 10:08:29;;;;;;;29.23;11.00;;;;;;;3.23;77.39;98188.09;5005470;28;20053;-58
2023/01/25 10:11:07;;;;;;;3.60;2.35;;;;;;;2.95;72.28;98191.78;5004412;28;20579;-58
2023/01/25 10:13:33;;;;;;;1.38;0.90;;;;;;;2.55;74.96;98055.50;5005405;28;20058;-58
2023/01/25 10:16:13;;;;;;;0.98;0.98;;;;;;;2.92;75.16;98181.41;5003691;28;20484;-57
2023/01/25 10:19:39;;;;;;;0.40;0.40;;;;;;;1.25;79.24;97883.94;5003601;28;20097;-54
2023/01/25 10:22:20;;;;;;;0.45;0.45;;;;;;;3.47;77.93;98169.69;5005205;28;20137;-61
2023/01/25 10:25:26;;;;;;;1.02;0.95;;;;;;;3.36;75.31;98160.00;5017167;28;20104;-55
2023/01/25 10:28:17;;;;;;;0.40;0.40;;;;;;;3.23;75.23;98144.28;4986296;28;20054;-56
2023/01/25 10:31:19;;;;;;;0.43;0.43;;;;;;;3.39;74.74;98148.44;5003873;28;20050;-62
2023/01/25 10:33:47;;;;;;;0.55;0.55;;;;;;;3.59;73.96;98152.78;4995276;28;20085;-57
2023/01/25 10:36:16;;;;;;;0.68;0.68;;;;;;;3.78;72.89;98150.84;5004421;28;20064;-56
2023/01/25 10:38:46;;;;;;;2.00;1.70;;;;;;;3.72;72.98;98154.75;4996076;28;20072;-56
2023/01/25 10:41:21;;;;;;;0.60;0.60;;;;;;;2.87;75.39;98104.88;4984057;28;20062;-57
2023/01/25 10:44:20;;;;;;;1.25;1.15;;;;;;;3.32;72.25;98137.03;5000740;28;20114;-57
2023/01/25 10:46:37;;;;;;;0.50;0.50;;;;;;;3.40;70.88;98133.63;5004656;28;20568;-62
2023/01/25 10:49:30;;;;;;;0.52;0.52;;;;;;;3.09;70.49;98143.41;5004787;28;20412;-56
2023/01/25 10:52:12;;;;;;;3.30;1.40;;;;;;;2.48;72.61;98134.38;5004199;28;20540;-61
2023/01/25 10:54:38;;;;;;;2.38;1.70;;;;;;;2.00;76.63;98058.94;5004205;28;20096;-55
2023/01/25 10:57:08;;;;;;;2.38;1.85;;;;;;;2.86;74.39;98127.88;4991504;28;20509;-55
2023/01/25 10:59:35;;;;;;;0.63;0.63;;;;;;;2.48;72.32;98105.09;5004796;28;20595;-56
2023/01/25 11:02:40;;;;;;;4.18;1.25;;;;;;;2.11;71.95;98126.03;5004665;28;20108;-61
2023/01/25 11:05:34;;;;;;;0.50;0.50;;;;;;;2.35;72.47;98114.03;5004778;28;20100;-57
2023/01/25 11:08:38;;;;;;;5.53;2.08;;;;;;;2.28;72.64;98110.00;5003653;28;20077;-58
2023/01/25 11:11:33;;;;;;;1.55;0.80;;;;;;;2.38;72.16;98121.63;5002736;28;20046;-62
2023/01/25 11:14:00;;;;;;;3.42;3.17;;;;;;;2.42;72.50;98110.94;5004997;28;20053;-61
2023/01/25 11:16:34;;;;;;;1.75;1.05;;;;;;;2.55;71.42;98110.22;5002856;28;20041;-56
2023/01/25 11:19:02;;;;;;;1.13;0.80;;;;;;;2.43;71.46;98120.75;5004442;28;20112;-62
2023/01/25 11:21:32;;;;;;;0.75;0.75;;;;;;;2.10;72.49;98097.09;5002601;28;20493;-55
2023/01/25 11:24:21;;;;;;;0.70;0.70;;;;;;;2.07;72.43;98105.88;5004526;28;20220;-56
2023/01/25 11:26:48;;;;;;;0.30;0.30;;;;;;;2.52;71.55;98102.59;5003854;28;20077;-62
2023/01/25 11:29:18;;;;;;;1.63;0.65;;;;;;;2.42;70.97;98078.13;5004189;28;20519;-62
2023/01/25 11:31:53;;;;;;;1.27;0.50;;;;;;;2.88;70.58;98092.78;5004235;28;20528;-58
2023/01/25 11:34:25;;;;;;;1.35;0.52;;;;;;;2.49;71.52;98094.97;5004343;28;20065;-56
2023/01/25 11:36:54;;;;;;;2.53;1.27;;;;;;;2.42;70.56;98089.06;5004015;28;20060;-62
2023/01/25 11:39:43;;;;;;;0.82;0.82;;;;;;;2.58;71.24;98088.56;5004324;28;20451;-63
2023/01/25 11:42:47;;;;;;;0.40;0.40;;;;;;;2.79;72.27;98087.19;5002474;28;20053;-55
2023/01/25 11:45:17;;;;;;;1.55;1.00;;;;;;;2.56;69.84;98090.78;5002808;28;20246;-56
2023/01/25 11:48:16;;;;;;;3.72;1.55;;;;;;;2.50;70.82;98080.19;5003427;28;20061;-64
2023/01/25 11:50:58;;;;;;;0.70;0.70;;;;;;;2.44;72.99;98097.78;5003593;28;20089;-60
2023/01/25 11:53:37;;;;;;;1.23;1.00;;;;;;;2.18;71.74;98082.78;5003953;28;20061;-63
2023/01/25 11:56:28;;;;;;;0.40;0.40;;;;;;;2.50;74.05;98069.25;5003698;28;20143;-62
2023/01/25 11:59:19;;;;;;;4.95;1.55;;;;;;;2.40;72.14;98069.41;4992461;28;20066;-59
2023/01/25 12:02:18;;;;;;;0.55;0.55;;;;;;;2.77;72.19;98064.78;5003239;28;20108;-55
2023/01/25 12:04:56;;;;;;;1.00;0.95;;;;;;;2.22;72.63;98068.25;5003964;28;20057;-62